This is the latest recevied weather packets stored in our database for station/object N7TUG-8. If no packets are shown the sender has not sent any weather packets the latest 10 day(s).
| Time | Temp. | Humidity | Pressure | Rain* | Wind** | Luminosity | Snow |
|---|---|---|---|---|---|---|---|
| 1777304917 | 10.56° C | 83% | 1015.4 hPa | 0 mm | 4.02 m/s, 154° | - | - |
| 1777304866 | 10.56° C | 83% | 1015.4 hPa | 0 mm | 4.02 m/s, 154° | - | - |
| 1777303908 | 11.11° C | 83% | 1015.2 hPa | 0 mm | 4.02 m/s, 135° | - | - |
| 1777303272 | 11.11° C | 82% | 1015.2 hPa | 0 mm | 4.02 m/s, 128° | - | - |
| 1777303131 | 11.11° C | 82% | 1015.2 hPa | 0 mm | 4.92 m/s, 126° | - | - |
| 1777302336 | 11.11° C | 82% | 1015.1 hPa | 0 mm | 4.02 m/s, 133° | - | - |
| 1777301608 | 11.11° C | 82% | 1014.9 hPa | 0 mm | 4.02 m/s, 128° | - | - |
| 1777301396 | 11.11° C | 82% | 1014.9 hPa | 0 mm | 4.02 m/s, 123° | - | - |
| 1777300737 | 11.11° C | 82% | 1014.8 hPa | 0 mm | 3.58 m/s, 123° | - | - |
| 1777300486 | 11.11° C | 82% | 1014.8 hPa | 0 mm | 4.02 m/s, 122° | - | - |
| 1777299611 | 11.11° C | 82% | 1014.8 hPa | 0 mm | 2.68 m/s, 135° | - | - |
| 1777299147 | 11.11° C | 82% | 1014.6 hPa | 0 mm | 3.58 m/s, 123° | - | - |
| 1777298831 | 10.56° C | 83% | 1014.6 hPa | 0 mm | 4.02 m/s, 122° | - | - |
| 1777297982 | 10.56° C | 83% | 1014.4 hPa | 0 mm | 4.02 m/s, 123° | - | - |
| 1777297196 | 10.56° C | 83% | 1014.3 hPa | 0 mm | 4.02 m/s, 122° | - | - |
| 1777296608 | 10.56° C | 83% | 1014.3 hPa | 0 mm | 3.58 m/s, 121° | - | - |
| 1777296321 | 10.56° C | 83% | 1014.3 hPa | 0 mm | 3.58 m/s, 121° | - | - |
| 1777295823 | 10.56° C | 83% | 1014.1 hPa | 0 mm | 3.13 m/s, 121° | - | - |
| 1777295526 | 10.56° C | 83% | 1014.1 hPa | 0 mm | 3.58 m/s, 122° | - | - |
| 1777294736 | 10.56° C | 83% | 1013.9 hPa | 0 mm | 3.58 m/s, 120° | - | - |
| 1777294282 | 10.56° C | 83% | 1014 hPa | 0 mm | 3.13 m/s, 127° | - | - |
| 1777293786 | 10.56° C | 83% | 1013.8 hPa | 0 mm | 4.02 m/s, 125° | - | - |
| 1777293472 | 10.56° C | 83% | 1013.9 hPa | 0 mm | 4.02 m/s, 124° | - | - |
| 1777292876 | 10.56° C | 83% | 1013.8 hPa | 0 mm | 3.58 m/s, 123° | - | - |
| 1777291966 | 10.56° C | 83% | 1013.6 hPa | 0 mm | 3.58 m/s, 126° | - | - |
* Rain latest hour (hover to see other rain measurements)
** Current wind speed in m/s (hover to see current wind gust speed)